Date,TemperatureHighF,TemperatureAvgF,TemperatureLowF,DewpointHighF,DewpointAvgF,DewpointLowF,HumidityHigh,HumidityAvg,HumidityLow,PressureMaxIn,PressureMinIn,WindSpeedMaxMPH,WindSpeedAvgMPH,GustSpeedMaxMPH,PrecipitationSumIn
2013-1-1,47.8,44.7,41.1,47.0,43.4,37.0,96,95,86,30.07,29.95,2,0,9,0.87
2013-1-2,42.5,39.6,37.7,40.0,35.8,34.0,93,86,79,30.17,30.00,3,0,7,0.00
2013-1-3,45.1,37.8,29.4,35.0,30.0,25.0,92,75,51,30.36,28.45,2,0,10,0.00
2013-1-4,47.3,33.5,23.3,29.0,24.8,21.0,94,73,44,30.44,29.98,5,0,10,0.00
2013-1-5,48.4,36.2,22.3,39.0,27.9,20.0,94,75,46,30.40,30.25,5,0,7,0.03
2013-1-6,48.8,42.6,37.4,40.0,37.5,31.0,95,83,63,30.30,29.42,1,0,6,0.01
2013-1-7,49.2,36.2,24.6,34.0,28.9,23.0,93,77,51,30.40,30.28,5,0,9,0.00
2013-1-8,55.7,39.3,25.2,42.0,33.8,24.0,95,82,58,30.39,30.26,2,0,5,0.00
2013-1-9,54.5,50.0,45.0,53.0,48.2,42.0,96,93,87,30.41,30.30,2,0,8,0.10
2013-1-10,63.9,54.1,50.5,58.0,51.9,49.0,96,92,80,30.40,30.08,4,0,11,0.03
2013-1-11,67.5,64.0,61.9,64.0,61.7,58.0,97,92,81,30.09,30.01,11,1,15,0.57
2013-1-12,71.7,66.2,62.9,67.0,63.4,60.0,98,91,81,30.06,29.93,3,0,6,0.05
2013-1-13,68.1,63.5,50.7,64.0,60.6,48.0,97,90,82,30.02,29.89,4,0,7,1.49
2013-1-14,49.0,42.5,38.0,47.0,41.1,37.0,96,94,90,30.24,30.02,2,0,9,1.70
2013-1-15,43.8,41.8,38.9,43.0,40.7,38.0,97,96,95,30.15,29.96,0,0,3,1.69
2013-1-16,48.1,44.7,41.6,47.0,43.4,40.0,97,95,91,30.05,29.90,3,0,10,0.08
2013-1-17,43.6,40.7,37.5,42.0,36.4,27.0,95,85,66,30.31,29.76,7,1,21,0.23
2013-1-18,48.9,35.5,25.5,35.0,27.9,22.0,96,77,35,30.54,30.34,3,0,8,0.01
2013-1-19,54.0,38.1,23.3,35.0,29.4,22.0,95,74,46,30.43,30.20,5,0,13,0.01
2013-1-20,58.8,42.8,28.1,41.0,33.7,27.0,96,73,48,30.20,30.09,5,0,7,0.00
2013-1-21,48.3,36.0,25.8,35.0,22.7,17.0,95,64,34,30.24,30.09,4,0,11,0.00
2013-1-22,39.5,30.5,23.8,18.0,13.2,10.0,75,50,32,30.38,30.23,5,0,7,0.00
2013-1-23,51.8,38.2,31.0,31.0,22.7,14.0,89,56,42,30.37,30.14,4,0,7,0.00
2013-1-24,49.3,38.4,25.3,42.0,23.8,10.0,89,58,33,30.37,30.15,8,1,14,0.00
2013-1-25,35.3,33.0,28.4,34.0,26.4,14.0,95,78,47,30.36,30.12,2,0,9,0.25
2013-1-26,48.4,37.6,29.7,37.0,33.0,28.0,96,85,58,30.32,30.18,5,0,11,0.25
2013-1-27,49.9,41.7,31.0,38.0,33.7,29.0,93,75,61,30.42,30.32,3,0,6,0.00
2013-1-28,59.0,50.6,45.3,50.0,41.8,34.0,89,72,62,30.34,30.20,5,1,9,0.00
2013-1-29,57.7,50.5,40.7,55.0,48.7,39.0,96,93,88,30.21,29.82,1,0,3,0.00
2013-1-30,66.9,56.1,39.0,65.0,53.3,33.0,97,90,73,29.82,29.50,7,1,16,1.49
2013-1-31,47.2,39.9,34.5,32.0,26.7,24.0,75,60,43,30.09,29.80,8,1,14,0.07
2013-2-1,45.7,32.0,22.6,35.0,17.7,10.0,82,57,32,30.42,30.04,9,1,13,0.18
2013-2-2,36.7,28.8,19.6,34.0,25.2,17.0,92,86,76,30.38,30.10,2,0,6,0.07
2013-2-3,52.3,40.3,25.7,38.0,30.3,24.0,95,71,45,30.14,30.00,5,0,14,0.01
2013-2-4,48.6,36.5,24.3,33.0,28.5,22.0,93,74,51,30.14,29.96,4,0,4,0.01
2013-2-5,62.2,47.9,37.2,46.0,40.0,34.0,93,76,49,30.01,29.90,5,0,8,0.00
2013-2-6,62.5,44.3,29.6,45.0,35.8,28.0,96,76,41,30.18,30.02,5,0,7,0.00
2013-2-7,52.8,46.2,39.4,45.0,40.2,36.0,92,80,58,30.11,29.92,1,0,4,0.00
2013-2-8,54.7,46.4,38.7,48.0,40.7,31.0,96,81,60,30.24,29.88,6,0,12,0.03
2013-2-9,55.7,43.2,31.4,35.0,31.6,27.0,83,65,42,30.32,30.20,5,1,11,0.03
2013-2-10,56.7,47.8,38.2,51.0,40.9,32.0,95,79,40,30.22,29.98,8,1,19,0.83
2013-2-11,58.7,52.7,42.0,54.0,46.8,36.0,96,82,47,30.12,29.97,3,0,5,0.03
2013-2-12,53.5,45.1,34.1,42.0,37.0,32.0,94,76,47,30.14,29.82,3,0,11,0.01
2013-2-13,49.4,43.6,40.4,46.0,40.2,34.0,96,88,73,29.98,29.67,6,0,11,0.11
2013-2-14,57.5,44.4,31.6,41.0,35.2,29.0,93,72,45,30.07,29.97,4,0,10,0.03
2013-2-15,60.7,42.1,29.1,44.0,34.1,28.0,96,76,51,30.08,29.98,5,0,12,0.02
2013-2-16,40.2,33.7,24.7,30.0,22.0,15.0,87,64,40,30.17,30.02,9,1,16,0.02
2013-2-17,47.4,31.6,14.8,22.0,18.0,12.0,91,62,32,30.30,30.17,2,0,9,0.00
2013-2-18,59.7,44.5,21.4,36.0,26.7,-99.9,92,56,38,30.31,29.99,9,-12,17,0.00
2013-2-19,54.4,46.0,34.9,46.0,31.5,17.0,95,62,30,30.20,29.93,4,1,14,0.57
2013-2-20,43.2,34.0,23.6,22.0,19.3,14.0,88,58,32,30.26,30.16,3,0,7,0.00
2013-2-21,53.0,39.5,28.2,40.0,26.2,18.0,95,62,37,30.22,29.93,3,0,11,0.79
2013-2-22,49.6,46.0,40.2,45.0,43.4,39.0,96,90,82,30.07,29.99,2,0,6,0.25
2013-2-23,56.4,48.2,40.7,50.0,45.4,39.0,96,90,78,30.01,29.81,2,0,6,0.22
2013-2-24,58.0,43.2,30.1,39.0,33.2,29.0,100,72,39,30.06,29.91,4,1,11,0.00
2013-2-25,54.8,46.6,35.3,44.0,33.5,26.0,77,61,48,30.01,29.74,4,0,7,0.00
2013-2-26,51.1,45.8,41.7,45.0,41.8,36.0,96,86,68,29.73,29.48,5,1,10,0.89
2013-2-27,55.5,44.8,40.3,39.0,35.1,31.0,84,70,50,29.86,29.72,3,1,11,0.00
2013-2-28,41.8,39.1,37.5,31.0,28.3,26.0,71,66,60,30.01,29.83,4,0,11,0.00
2013-3-1,42.7,38.2,35.4,32.0,30.6,28.0,88,74,65,30.01,29.96,4,0,8,0.00
2013-3-2,39.8,36.0,32.4,32.0,28.3,25.0,86,74,63,30.08,29.95,7,1,10,0.00
2013-3-3,41.3,32.8,23.8,25.0,22.4,20.0,86,66,45,30.11,30.05,4,0,10,0.00
2013-3-4,53.7,39.0,22.2,34.0,26.5,20.0,90,64,38,30.19,29.96,3,0,10,0.00
2013-3-5,56.8,46.7,38.6,53.0,42.2,26.0,96,85,61,29.97,29.62,13,1,17,0.69
2013-3-6,42.5,36.5,33.4,31.0,26.7,23.0,76,68,59,30.24,29.90,10,1,22,0.11
2013-3-7,47.7,38.6,32.3,34.0,29.2,26.0,81,70,57,30.34,30.24,12,1,14,0.05
2013-3-8,56.6,41.8,29.1,32.0,28.5,25.0,87,63,30,30.37,30.24,6,1,12,0.05
2013-3-9,61.6,48.1,32.8,38.0,33.8,29.0,88,60,40,30.29,30.13,5,0,8,0.00
2013-3-10,70.0,58.7,43.5,43.0,39.2,37.0,84,52,31,30.13,29.93,17,2,21,0.00
2013-3-11,61.9,55.4,40.4,55.0,49.8,38.0,95,83,52,29.96,29.70,9,1,16,0.96
2013-3-12,58.8,45.5,35.9,39.0,33.8,31.0,87,66,41,30.10,29.88,6,0,9,0.00
2013-3-13,48.8,39.5,29.3,33.0,26.8,20.0,93,64,40,30.34,30.08,8,1,14,0.00
2013-3-14,52.0,38.3,26.3,37.0,23.7,19.0,86,58,32,30.40,30.24,3,0,9,0.00
2013-3-15,74.2,52.3,29.7,49.0,40.1,28.0,96,68,40,30.27,29.90,3,0,9,0.00
2013-3-16,77.4,66.8,55.1,54.0,48.5,44.0,77,53,39,29.90,29.76,4,1,11,0.00
2013-3-17,73.2,63.7,51.0,56.0,50.8,47.0,87,64,47,29.91,29.80,5,1,10,0.00
2013-3-18,61.5,55.7,51.4,57.0,52.8,48.0,97,90,81,29.85,29.69,9,1,13,0.95
2013-3-19,61.6,50.9,34.4,53.0,33.9,21.0,100,58,29,30.11,29.85,5,1,16,0.01
2013-3-20,58.4,46.9,36.5,32.0,25.7,19.0,71,46,28,30.12,29.90,9,1,16,0.00
2013-3-21,46.4,36.6,25.3,29.0,18.4,11.0,70,50,33,30.04,29.92,8,1,11,0.00
2013-3-22,46.1,38.4,29.3,35.0,24.3,19.0,77,58,46,30.06,29.98,3,0,6,0.00
2013-3-23,53.9,45.2,38.4,46.0,40.3,35.0,93,83,71,30.00,29.75,4,0,6,0.10
2013-3-24,58.6,49.6,42.7,53.0,45.5,32.0,96,86,59,29.80,29.37,6,1,13,0.79
2013-3-25,41.9,37.0,34.2,32.0,26.2,24.0,75,65,57,30.07,29.65,7,1,14,0.06
2013-3-26,40.6,36.1,32.6,30.0,27.8,26.0,86,72,60,30.31,30.07,4,0,8,0.04
2013-3-27,54.4,39.8,24.4,33.0,27.6,22.0,94,65,37,30.36,30.25,8,0,13,0.12
2013-3-28,62.0,43.2,26.0,37.0,30.8,24.0,93,66,37,30.36,30.23,7,1,9,0.00
2013-3-29,56.1,41.0,31.3,39.0,33.4,29.0,94,77,47,30.33,30.22,6,0,9,0.00
2013-4-2,49.9,49.3,48.3,31.0,29.6,29.0,52,47,44,30.18,30.15,0,0,4,0.00
2013-4-3,57.5,50.4,41.0,34.0,28.6,24.0,67,44,33,30.21,30.11,6,1,11,0.00
2013-4-4,50.1,43.6,40.6,44.0,41.2,33.0,95,91,52,30.13,29.95,3,0,6,1.31
2013-4-5,63.6,49.7,42.6,47.0,43.0,41.0,95,81,45,30.04,29.97,6,1,12,0.12
2013-4-7,75.5,69.7,55.0,53.0,49.8,47.0,81,51,38,30.12,29.98,4,1,13,0.00
2013-4-8,77.7,65.0,49.3,59.0,53.7,47.0,93,69,48,30.05,27.13,4,0,11,0.00
2013-4-9,82.1,67.5,49.4,63.0,56.2,48.0,96,70,48,30.13,29.96,7,1,13,0.00
2013-4-10,84.6,70.1,51.4,64.0,58.1,50.0,96,69,46,30.05,27.73,9,1,11,0.00
2013-4-11,78.6,69.3,59.9,66.0,60.8,56.0,96,75,59,29.83,29.56,10,1,16,1.05
2013-4-12,67.8,59.7,46.6,62.0,47.2,41.0,94,66,39,29.91,29.56,4,0,10,0.18
2013-4-13,76.0,57.9,39.0,47.0,42.2,37.0,96,62,26,30.04,29.92,6,0,9,0.00
2013-4-14,63.6,54.1,42.8,55.0,48.4,41.0,95,82,55,30.00,29.89,1,0,6,0.04
2013-4-15,78.7,64.8,55.0,62.0,57.4,54.0,96,79,54,30.04,27.80,4,0,9,0.00
2013-4-16,80.4,68.1,57.2,68.0,61.8,56.0,94,81,63,30.17,30.05,3,0,6,0.00
2013-4-17,85.3,66.9,60.0,70.0,62.8,59.0,97,88,54,30.15,30.00,6,1,14,0.16
2013-4-18,81.2,66.8,55.8,66.0,60.0,55.0,98,82,48,30.00,27.70,7,1,16,0.01
2013-4-19,54.7,50.0,44.8,43.0,37.6,33.0,67,63,59,30.08,29.54,3,1,11,1.29
2013-4-20,64.8,48.5,32.0,39.0,34.9,30.0,94,64,31,30.25,28.04,5,0,13,0.00
2013-4-21,69.5,53.3,37.1,45.0,39.4,34.0,93,63,33,30.34,30.19,5,1,10,0.00
2013-4-22,72.5,56.5,38.8,48.0,44.0,37.0,96,68,38,30.30,30.08,6,0,9,0.00
2013-4-23,74.7,59.6,41.9,54.0,47.2,41.0,96,67,44,30.18,29.63,7,1,11,0.00
2013-4-24,69.8,59.7,48.7,63.0,53.4,41.0,92,80,70,30.20,29.95,7,1,13,0.04
2013-4-25,69.3,53.0,36.2,43.0,38.3,32.0,93,61,27,30.32,30.20,10,1,10,0.01
2013-4-26,72.3,54.7,36.3,52.0,41.5,34.0,95,66,34,30.36,30.22,3,0,8,0.13
2013-4-27,56.4,53.5,51.2,55.0,52.1,50.0,96,95,93,30.34,30.06,3,0,4,1.17
2013-4-28,60.7,57.4,52.8,59.0,56.3,52.0,97,96,93,30.08,28.53,3,0,11,1.93
2013-4-29,74.9,64.0,55.0,60.0,56.9,53.0,95,80,53,29.98,27.94,6,0,7,0.00
2013-4-30,80.0,62.4,46.0,62.0,54.3,45.0,97,78,44,30.02,27.61,5,0,8,0.00
2013-5-1,77.1,66.2,52.1,63.0,57.8,51.0,97,76,55,30.12,28.32,4,0,7,0.00
2013-5-2,75.7,66.0,52.1,63.0,57.9,51.0,96,76,60,30.12,29.06,5,0,7,0.00
2013-5-3,72.8,62.8,54.8,60.0,57.0,54.0,97,82,61,30.07,28.18,4,0,14,0.00
2013-5-4,60.9,54.7,53.1,56.0,53.1,52.0,97,94,79,29.90,28.10,1,0,4,3.60
2013-5-5,64.0,52.4,47.2,54.0,49.4,46.0,97,90,62,29.85,27.32,5,0,8,1.52
2013-5-6,55.1,51.1,46.7,53.0,49.3,45.0,96,93,84,29.88,27.63,3,0,8,0.52
2013-5-7,75.0,59.5,43.8,56.0,51.4,43.0,97,77,46,29.94,24.76,5,0,8,0.01
2013-5-8,59.7,52.5,49.2,58.0,50.9,48.0,96,95,92,30.01,29.91,0,0,1,0.00
2013-5-9,83.6,68.2,52.2,65.0,58.5,51.0,97,75,45,30.06,24.24,4,0,6,0.00
2013-5-10,75.0,66.1,54.6,63.0,58.9,54.0,97,79,60,30.01,28.23,5,0,11,0.00
2013-5-11,76.2,68.3,58.2,66.0,60.6,51.0,91,77,59,29.95,26.75,6,0,9,0.00
2013-5-12,68.2,58.2,43.6,51.0,41.5,36.0,93,58,33,30.12,27.59,6,0,9,0.00
2013-5-13,70.9,54.2,35.5,44.0,39.6,34.0,95,63,31,30.22,28.70,2,0,11,0.00
2013-5-14,82.8,62.3,39.8,59.0,49.8,38.0,95,68,43,30.21,28.66,4,0,12,0.00
2013-5-15,87.9,72.6,53.4,65.0,58.2,52.0,95,64,38,30.10,25.18,5,0,10,0.00
2013-5-16,84.7,69.8,55.9,66.0,60.2,54.0,95,74,47,30.01,24.91,6,0,7,0.00
2013-5-17,80.3,69.2,59.0,68.0,63.4,57.0,96,83,63,30.03,28.11,3,0,5,0.09
2013-5-18,76.2,70.1,65.0,72.0,67.3,64.0,96,91,80,30.00,28.00,2,0,8,0.75
2013-5-19,71.7,56.9,59.5,70.0,40.2,-99.9,96,80,91,30.05,29.62,5,-154,7,0.31
2013-5-20,83.5,69.1,56.5,71.0,64.0,55.0,97,85,64,30.07,27.63,5,0,8,0.00
2013-5-21,89.5,72.4,59.0,74.0,66.1,58.0,97,82,54,29.99,24.77,5,0,9,0.00
2013-5-22,86.1,71.2,63.0,72.0,66.6,62.0,97,86,58,29.89,25.77,6,0,12,0.70
2013-5-23,82.3,71.1,59.0,69.0,61.4,56.0,97,74,47,29.97,26.55,6,1,16,0.00
2013-5-24,74.7,64.8,52.2,56.0,52.2,47.0,90,66,37,30.15,24.20,8,1,11,0.00
2013-5-25,77.1,61.2,44.7,57.0,49.4,43.0,96,70,34,30.30,28.60,5,0,8,0.00
2013-5-26,79.6,64.9,49.3,62.0,54.5,48.0,96,73,45,30.23,26.11,7,0,7,0.00
2013-5-27,84.2,68.0,52.8,65.0,57.0,-99.9,96,76,47,30.17,27.25,4,0,8,0.00
2013-5-28,87.0,74.3,60.6,66.0,63.1,59.0,95,71,45,30.12,30.01,8,0,12,0.00
2013-5-29,87.3,74.4,61.7,68.0,64.0,59.0,94,72,47,30.14,30.03,7,0,10,0.00
2013-5-30,84.2,73.2,62.9,69.0,65.5,61.0,94,78,59,30.16,30.02,10,1,12,0.00
2013-5-31,84.9,75.4,64.0,70.0,66.8,62.0,94,76,59,30.11,29.97,7,1,11,0.00
2013-6-1,83.7,75.4,69.8,75.0,70.0,65.0,95,83,68,30.00,29.88,8,1,13,0.17
2013-6-2,83.0,72.9,68.8,73.0,67.6,-99.9,96,86,64,29.92,29.80,3,-13,7,12.86
2013-6-3,83.5,73.0,63.4,69.0,64.5,61.0,96,77,51,29.93,29.82,5,1,9,0.00
2013-6-4,83.8,72.2,58.0,66.0,62.0,56.0,95,73,47,29.98,29.90,5,1,11,0.01
2013-6-5,82.1,68.9,63.2,73.0,66.0,61.0,95,90,72,29.97,29.85,3,0,7,0.84
2013-6-6,83.1,73.2,65.7,73.0,68.9,65.0,96,87,67,29.86,29.67,7,1,10,0.01
2013-6-7,83.6,72.1,65.1,72.0,68.0,64.0,96,88,64,29.80,29.65,4,0,9,0.08
2013-6-8,84.6,48.5,65.4,69.0,6.2,-99.9,95,47,54,29.99,29.80,7,-365,11,0.00
2013-6-9,83.6,71.3,65.0,74.0,68.2,63.0,95,90,68,30.02,29.89,3,0,15,0.89
2013-6-10,85.6,75.1,68.5,70.0,68.2,65.0,95,81,51,29.92,29.82,7,1,12,0.50
2013-6-11,91.0,78.4,67.9,75.0,70.9,67.0,96,80,52,29.96,29.89,4,1,9,0.05
2013-6-12,93.3,80.3,69.4,79.0,73.6,68.0,95,81,57,30.00,29.87,7,1,11,0.00
2013-6-13,90.9,81.1,72.6,78.0,72.9,66.0,94,76,64,29.88,29.68,12,2,16,0.01
2013-6-14,84.3,73.0,60.2,67.0,58.8,-99.9,93,68,47,29.95,29.81,7,-11,11,0.00
2013-6-15,86.8,73.8,60.5,67.0,63.7,59.0,94,73,50,30.06,29.96,7,1,12,0.00
2013-6-16,88.4,74.3,63.8,75.0,67.7,62.0,95,81,56,30.07,29.92,6,1,15,0.15
2013-6-17,84.1,73.5,68.8,76.0,70.1,67.0,95,89,67,29.99,29.86,4,0,11,0.33
2013-6-18,80.7,72.9,67.4,74.0,69.4,66.0,96,89,75,29.88,29.80,7,1,11,1.10
2013-6-19,86.4,74.3,62.2,71.0,66.9,61.0,95,79,54,30.00,29.88,5,0,9,0.00
2013-6-20,88.0,66.0,64.1,74.0,49.0,-99.9,95,72,53,30.13,30.01,2,-111,10,0.06
2013-6-21,86.3,48.2,70.3,71.0,1.9,-99.9,92,42,50,30.18,30.07,4,-397,11,0.00
2013-6-22,86.5,75.9,66.3,71.0,67.2,65.0,95,77,50,30.16,30.02,3,0,9,0.00
2013-6-23,87.1,60.3,66.2,73.0,28.0,-99.9,94,55,56,30.13,30.00,6,-249,10,0.00
2013-6-24,89.1,77.0,67.5,74.0,70.3,66.0,95,81,55,30.16,30.00,4,1,9,0.00
2013-6-25,88.5,77.5,71.4,77.0,72.4,69.0,94,85,61,30.09,29.94,4,0,12,0.00
2013-6-26,91.2,80.7,69.4,76.0,72.5,68.0,95,78,56,30.00,29.81,5,1,12,0.00
2013-6-27,90.2,80.4,75.0,77.0,73.4,70.0,95,79,63,29.86,29.73,10,1,17,0.11
2013-6-28,91.6,77.8,69.2,78.0,71.8,68.0,96,83,59,29.77,29.60,5,1,14,0.21
2013-6-29,88.9,77.6,68.6,72.0,67.3,62.0,96,74,45,29.66,29.58,7,1,11,0.02
2013-6-30,88.4,76.2,63.1,68.0,64.7,60.0,95,71,40,29.76,29.62,8,1,13,0.30
2013-7-1,80.7,70.0,63.3,73.0,66.8,62.0,95,90,73,29.85,29.72,3,0,9,0.93
2013-7-2,84.6,70.9,66.7,74.0,68.2,65.0,96,91,61,29.99,29.85,4,0,12,0.31
2013-7-3,73.8,70.7,68.1,71.0,68.9,67.0,96,93,86,30.09,29.99,4,0,7,0.06
2013-7-4,76.3,71.1,68.1,73.0,69.2,67.0,96,94,84,30.09,30.00,3,0,11,1.38
2013-7-5,75.3,72.4,69.5,72.0,70.4,68.0,96,93,87,30.12,30.03,5,0,10,0.25
2013-7-6,71.2,67.9,69.0,70.0,63.7,-99.9,96,93,95,30.08,30.04,0,-33,1,0.40
2013-7-7,80.9,72.4,68.5,74.0,70.6,67.0,96,94,78,30.11,30.03,1,0,9,1.86
2013-7-8,88.2,72.3,69.5,77.0,63.6,-99.9,96,84,63,30.14,30.02,4,-48,7,0.08
2013-7-9,89.1,56.5,73.1,79.0,22.6,-99.9,96,59,67,30.10,29.98,6,-304,10,0.13
2013-7-10,90.1,68.3,70.7,80.0,52.2,-99.9,96,77,70,30.02,29.85,6,-128,10,0.19
2013-7-11,85.9,72.9,70.3,77.0,65.5,-99.9,96,85,68,29.93,29.80,3,-40,7,0.10
2013-7-12,86.1,76.3,67.1,73.0,69.1,65.0,96,80,57,29.91,29.83,8,1,13,0.00
2013-7-13,86.1,74.1,62.5,74.0,68.2,61.0,95,83,63,30.01,29.89,8,1,14,0.00
2013-7-14,86.8,68.3,70.2,77.0,53.3,-99.9,96,77,67,30.13,29.99,2,-110,12,0.38
2013-7-15,89.4,43.3,73.7,76.0,-9.9,-99.9,95,38,57,30.22,30.12,3,-478,9,0.04
2013-7-16,91.0,80.1,69.3,78.0,72.8,68.0,96,80,58,30.26,30.16,3,0,10,0.00
2013-7-17,94.0,81.8,70.8,78.0,73.6,69.0,95,78,52,30.23,30.08,8,1,13,0.01
2013-7-18,91.0,79.6,71.2,78.0,73.1,70.0,95,82,56,30.17,29.98,4,0,8,0.01
2013-7-19,94.0,78.9,72.2,77.0,66.0,-99.9,95,73,45,30.05,29.89,10,-38,17,0.11
2013-7-20,93.2,39.4,71.3,76.0,-18.9,-99.9,95,33,51,29.96,29.82,3,-533,9,0.00
2013-7-21,89.8,78.3,72.2,76.0,73.2,71.0,95,85,61,29.95,29.86,8,1,12,0.05
2013-7-22,87.4,76.9,71.3,75.0,71.4,69.0,94,83,64,29.93,29.79,10,1,11,0.01
2013-7-23,82.7,76.7,69.9,76.0,71.9,68.0,94,85,76,29.88,29.76,5,1,11,0.06
2013-7-24,85.9,75.9,69.9,75.0,71.0,64.0,95,85,65,29.84,29.75,5,0,11,0.00
2013-7-25,87.2,74.8,63.9,72.0,67.3,63.0,96,79,55,29.98,29.84,4,0,10,0.00
2013-7-26,90.0,75.3,63.0,73.0,60.7,-99.9,94,70,52,30.02,0.00,7,-33,10,0.00
2013-7-27,86.9,76.3,68.6,73.9,69.4,66.4,94,81,51,29.94,29.81,8,1,10,0.00
2013-7-28,84.9,75.1,66.4,73.0,67.8,62.0,94,79,61,30.02,29.86,7,0,12,0.00
2013-7-29,82.5,69.4,58.5,67.2,61.6,56.8,95,78,48,30.14,30.01,7,0,9,0.00
2013-7-30,87.4,74.0,62.8,72.3,65.5,60.9,94,77,46,30.18,30.05,5,0,8,0.00
2013-7-31,78.7,72.3,68.8,73.1,69.7,65.8,96,92,81,30.09,29.91,10,0,10,1.02
2013-8-1,86.6,77.6,70.2,74.0,70.8,67.7,96,81,58,29.93,29.88,9,1,11,0.00
2013-8-2,87.9,75.1,63.8,71.5,67.2,62.0,95,78,48,29.99,29.91,10,0,10,0.00
2013-8-3,84.9,76.6,66.1,75.2,71.1,64.0,95,84,68,29.99,29.93,6,0,9,0.00
2013-8-4,87.4,79.4,69.1,74.9,69.8,64.0,94,74,55,30.02,29.94,8,1,10,0.00
2013-8-5,87.6,74.0,61.1,71.0,65.1,59.0,94,76,44,30.02,29.91,6,0,8,0.00
2013-8-6,86.3,76.3,70.0,76.9,71.1,67.9,95,84,66,29.94,29.89,6,0,10,0.02
2013-8-7,84.2,74.7,71.8,76.9,71.9,69.0,96,91,72,29.97,29.89,12,0,14,0.03
2013-8-8,87.9,75.5,71.8,78.0,72.6,70.3,96,91,70,29.99,29.90,6,1,10,0.14
2013-8-9,90.4,77.8,71.1,80.7,74.3,69.9,97,90,66,30.01,29.92,7,1,10,0.25
2013-8-10,88.4,77.8,71.3,79.0,74.6,70.0,96,90,70,30.06,30.00,6,0,12,0.88
2013-8-11,90.2,80.0,74.4,78.5,74.8,71.4,96,85,62,30.09,29.98,10,1,12,0.00
2013-8-12,90.6,79.0,71.5,78.3,74.1,69.7,96,86,64,30.05,29.91,7,1,17,0.26
2013-8-13,87.9,78.4,71.1,75.4,72.2,69.5,96,82,60,29.94,29.82,8,1,14,0.44
2013-8-14,81.0,72.4,64.0,70.9,66.0,59.1,93,81,56,29.99,29.87,7,0,13,0.00
2013-8-15,78.3,67.3,62.1,69.0,60.4,57.6,89,79,62,30.02,29.96,3,0,7,0.00
2013-8-16,76.3,70.1,63.6,67.0,63.9,61.0,93,81,65,30.05,29.99,7,1,10,0.00
2013-8-17,74.6,69.5,66.8,68.3,65.8,64.7,95,88,74,30.08,30.02,4,0,7,0.04
2013-8-18,77.7,69.7,66.7,72.0,67.3,65.0,96,92,75,30.13,30.05,6,0,8,0.49
2013-8-19,80.8,72.4,68.9,73.5,69.7,67.7,96,91,74,30.10,29.99,7,0,7,0.24
2013-8-20,83.9,74.4,69.0,76.0,71.1,67.8,96,90,70,30.11,30.02,6,0,7,0.04
2013-8-21,80.9,73.7,71.2,74.0,71.6,70.0,96,93,78,30.16,30.05,3,0,8,1.56
2013-8-22,86.7,74.2,70.8,77.0,72.1,69.0,96,93,71,30.12,29.99,4,0,13,0.49
2013-8-23,89.2,73.1,66.5,76.0,69.7,65.0,97,90,59,30.04,29.92,5,0,9,0.05
2013-8-24,87.1,74.2,65.5,75.0,69.3,64.0,96,86,60,30.18,30.01,9,1,11,0.01
2013-8-25,85.2,75.0,65.1,70.3,67.0,63.6,96,78,51,30.30,30.18,7,0,9,0.00
2013-8-26,85.3,73.1,61.7,69.7,65.4,60.0,96,79,53,30.27,30.09,7,0,10,0.00
2013-8-27,88.2,74.5,63.6,73.9,68.0,62.0,95,82,55,30.12,29.98,8,0,9,0.00
2013-8-28,90.1,73.9,66.5,76.0,69.9,65.0,96,88,58,30.02,29.93,7,0,8,0.00
2013-8-29,91.6,79.4,68.7,78.0,73.1,67.0,96,82,58,29.98,29.87,5,0,9,0.00
2013-8-30,88.4,78.0,71.5,78.7,74.0,70.0,96,88,71,29.95,29.86,9,0,9,0.02
2013-8-31,80.4,74.2,72.1,76.0,72.5,71.0,97,94,86,29.91,29.87,7,0,7,0.00
2013-9-1,85.8,74.9,71.6,78.0,72.7,70.0,96,93,77,29.87,29.79,1,0,8,0.57
2013-9-2,86.5,77.0,70.3,77.3,72.3,69.1,97,86,63,29.90,29.78,8,1,13,0.00
2013-9-3,89.0,78.2,69.4,75.6,71.2,65.7,96,81,50,29.94,29.79,7,0,10,0.00
2013-9-4,86.5,73.3,61.7,70.8,66.0,60.3,96,80,52,30.06,29.94,7,0,9,0.00
2013-9-5,85.2,71.8,60.2,69.8,64.8,58.8,96,81,54,30.10,30.03,6,0,11,0.00
2013-9-6,86.8,72.6,60.5,72.0,65.7,59.0,96,81,52,30.11,29.99,5,0,8,0.00
2013-9-7,88.7,74.3,61.8,73.4,67.6,60.0,96,81,55,30.06,29.93,6,0,10,0.00
2013-9-8,88.3,75.9,64.8,77.3,70.2,63.4,96,84,60,29.96,29.87,8,0,10,0.00
2013-9-9,89.8,77.9,70.5,76.9,72.5,69.0,95,84,59,30.05,29.93,7,0,8,0.00
2013-9-10,90.8,78.4,68.6,74.5,71.3,67.0,96,81,51,30.15,30.05,7,0,10,0.00
2013-9-11,89.9,77.5,67.6,74.0,70.4,66.0,96,81,52,30.18,30.04,6,0,8,0.00
2013-9-12,89.6,77.8,68.6,74.2,70.3,67.0,96,80,55,30.05,29.85,10,1,12,0.00
2013-9-13,82.1,74.0,60.4,69.0,63.1,54.0,93,71,41,29.93,29.82,10,1,12,0.00
2013-9-14,78.7,64.4,53.1,61.3,56.1,50.0,93,76,48,30.03,29.92,4,0,11,0.00
2013-9-15,84.6,67.3,53.7,68.9,60.5,52.0,95,81,51,30.12,30.03,8,0,11,0.00
2013-9-16,84.9,70.5,58.4,67.7,62.7,57.0,97,78,50,30.12,30.03,7,0,7,0.00
2013-9-17,83.2,73.3,65.3,68.6,64.3,60.7,88,74,59,30.16,30.06,10,1,11,0.00
2013-9-18,80.0,71.8,65.0,66.0,62.7,59.9,92,74,58,30.18,30.06,8,1,13,0.00
2013-9-19,84.8,71.1,59.6,70.2,64.2,58.0,96,81,57,30.15,29.99,7,0,12,0.00
2013-9-20,87.4,73.5,61.6,69.0,65.2,60.0,96,78,47,30.03,29.82,8,1,10,0.00
2013-9-21,72.3,67.9,58.2,69.1,65.8,56.8,96,93,85,29.83,29.70,11,0,18,2.10
2013-9-22,76.6,62.9,50.5,61.5,55.9,49.0,97,80,50,29.88,29.78,9,1,13,0.00
2013-9-23,81.3,66.0,54.5,65.5,59.0,52.8,95,80,54,29.97,29.87,5,0,9,0.00
2013-9-24,71.9,65.3,58.6,66.0,62.0,57.0,96,89,76,29.99,29.84,3,0,7,0.00
2013-9-25,69.0,67.0,65.5,67.0,65.5,64.0,96,95,91,29.84,29.78,0,0,6,0.35
2013-9-26,80.5,69.6,62.1,68.0,64.8,60.7,97,86,58,29.97,29.82,0,0,0,0.00
2013-9-27,81.3,66.8,55.4,65.1,60.4,54.0,97,82,49,30.11,29.97,0,0,0,0.00
2013-9-28,79.0,65.9,54.4,64.0,59.2,53.0,97,81,53,30.18,30.04,0,0,0,0.00
2013-9-29,75.7,64.6,53.6,63.0,58.6,52.0,96,82,55,30.11,29.97,0,0,0,0.01
2013-9-30,76.9,64.9,55.1,63.9,58.9,54.0,97,83,56,30.05,29.94,0,0,0,0.01
2013-10-1,81.5,67.8,56.5,67.6,62.3,55.0,96,84,59,30.12,30.00,0,0,0,0.00
2013-10-2,84.2,70.7,60.9,71.0,65.4,59.5,97,85,55,30.13,30.00,0,0,0,0.00
2013-10-3,84.8,72.8,63.8,70.0,66.2,62.0,96,82,53,30.08,29.98,0,0,0,0.00
2013-10-4,82.3,68.8,59.0,71.6,64.5,57.6,96,87,66,30.12,30.02,0,0,0,0.00
2013-10-5,86.6,71.9,61.6,70.6,65.5,60.4,97,82,55,30.08,29.94,0,0,3,0.00
2013-10-6,84.0,70.4,58.1,70.7,65.4,55.5,97,85,63,29.96,29.76,0,0,0,0.19
2013-10-7,71.1,61.2,54.2,55.6,53.0,49.0,95,76,51,30.02,29.85,0,0,0,0.01
2013-10-8,74.7,62.0,52.9,59.6,52.7,47.0,90,73,54,30.09,30.00,0,0,0,0.00
2013-10-9,77.3,63.5,53.1,63.7,57.1,-99.9,96,82,60,30.16,30.05,1,-4,3,0.00
2013-10-10,80.1,64.9,53.4,65.0,58.1,52.0,96,81,52,30.12,29.98,7,0,11,0.00
2013-10-11,80.6,62.7,47.6,61.3,54.5,46.0,96,78,40,30.06,29.95,8,0,10,0.00
2013-10-12,80.3,63.3,48.7,63.1,55.9,47.3,96,79,43,30.08,29.98,7,0,11,0.00
2013-10-13,81.3,64.7,50.3,64.1,57.3,48.9,96,80,50,30.18,30.07,9,1,10,0.00
2013-10-14,80.8,66.6,53.9,65.9,60.4,52.5,96,82,57,30.18,30.04,6,1,10,0.00
2013-10-15,71.9,67.0,61.0,63.0,60.8,59.0,95,81,67,30.11,29.99,6,1,10,0.00
2013-10-16,72.4,64.8,60.2,64.0,60.9,58.0,95,87,72,30.02,29.90,4,0,10,0.04
2013-10-17,72.2,62.3,51.5,68.0,59.2,49.8,96,90,76,29.97,29.84,7,1,16,0.29
2013-10-18,68.2,54.7,43.7,54.0,48.6,42.0,96,82,54,30.04,29.93,8,0,9,0.00
2013-10-19,68.0,56.1,46.6,56.8,51.3,43.8,95,85,64,30.01,29.87,8,1,11,0.00
2013-10-20,65.0,48.9,35.5,47.3,41.5,33.9,96,78,40,30.09,29.99,7,1,10,0.00
2013-10-21,70.7,52.0,36.7,53.9,45.4,35.0,96,81,47,30.12,29.96,6,0,9,0.00
2013-10-22,67.7,58.0,49.4,55.5,52.2,47.4,95,82,61,30.00,29.82,7,0,10,0.00
2013-10-23,54.4,48.2,35.9,48.0,40.5,33.6,94,76,51,30.09,29.81,12,1,17,0.00
2013-10-24,59.0,43.6,35.5,45.0,37.4,-99.9,93,81,56,30.27,30.08,9,-5,19,0.00
2013-10-25,53.7,40.7,28.2,35.0,30.8,25.6,91,70,43,30.45,30.27,9,1,16,0.00
2013-10-26,60.7,43.2,25.9,40.8,32.7,23.6,93,70,41,30.35,30.12,8,1,13,0.00
2013-10-27,64.8,55.1,47.2,54.0,48.1,40.7,91,78,61,30.14,30.06,5,0,10,0.00
2013-10-28,61.1,55.4,47.6,57.5,53.2,46.0,96,92,85,30.25,30.09,4,0,6,0.00
2013-10-29,70.6,59.9,52.8,61.4,56.1,51.6,96,88,68,30.30,30.18,3,0,9,0.00
2013-10-30,79.6,64.1,53.3,62.3,57.2,51.9,96,80,49,30.25,30.07,10,1,10,0.00
2013-10-31,72.8,65.1,58.1,65.5,60.6,56.0,94,86,75,30.10,29.67,11,2,19,0.04
2013-11-1,73.7,63.9,47.7,66.0,55.7,45.7,96,77,43,29.80,29.64,9,1,14,0.58
2013-11-2,66.5,52.3,40.4,51.6,43.0,39.0,96,74,41,30.09,29.79,15,1,16,0.00
2013-11-3,60.5,48.7,37.7,42.9,40.1,35.6,93,74,46,30.28,30.08,9,1,12,0.00
2013-11-4,65.3,51.4,34.3,45.1,40.4,33.0,95,69,44,30.40,30.28,12,1,14,0.00
2013-11-5,64.5,52.2,41.6,48.3,43.1,39.4,93,73,48,30.43,30.28,5,0,8,0.00
2013-11-6,71.9,58.9,45.6,60.4,53.7,43.4,95,84,66,30.29,30.03,8,1,13,0.04
2013-11-7,62.2,52.1,37.8,60.0,44.6,33.0,96,77,43,30.27,29.99,18,2,19,0.42
2013-11-8,58.0,43.3,31.9,35.2,31.1,27.6,92,66,32,30.39,30.26,11,1,13,0.00
2013-11-9,57.3,43.6,29.2,40.3,34.7,27.0,96,74,47,30.33,30.22,7,1,11,0.00
2013-11-10,69.8,51.9,38.8,47.5,40.7,35.2,94,69,31,30.30,30.20,12,1,13,0.00
2013-11-11,66.5,47.5,31.0,40.4,34.9,28.2,91,66,32,30.31,30.13,8,0,9,0.00
2013-11-12,53.2,42.4,31.6,43.7,31.5,16.0,86,66,44,30.54,30.12,19,3,22,0.00
2013-11-13,46.7,34.0,25.6,24.9,20.3,17.0,85,59,35,30.65,30.47,9,1,17,0.00
2013-11-14,58.1,35.7,20.3,32.8,23.8,17.8,91,67,28,30.50,30.28,6,0,8,0.00
2013-11-15,48.8,39.7,28.7,42.4,35.3,23.5,94,85,66,30.29,30.15,4,0,6,0.30
2013-11-16,59.8,49.4,44.0,56.5,47.8,42.0,100,94,88,30.21,30.08,5,0,7,0.01
2013-11-17,67.2,62.1,56.9,66.0,60.1,55.0,97,93,85,30.08,29.82,6,1,12,1.11
2013-11-18,67.1,58.4,42.6,65.8,44.8,35.0,96,63,36,30.13,29.82,11,2,21,0.08
2013-11-19,54.9,45.6,39.0,35.0,31.3,27.0,74,58,37,30.21,30.11,12,2,16,0.00
2013-11-20,60.2,44.5,29.6,40.0,34.2,27.0,93,70,40,30.30,30.16,6,1,10,0.00
2013-11-21,62.2,54.9,46.5,52.2,46.4,39.9,83,73,65,30.33,30.23,5,0,8,0.00
2013-11-22,58.6,56.0,53.4,56.0,53.7,51.3,96,92,83,30.29,30.16,9,1,12,0.10
2013-11-23,54.4,47.0,34.4,51.2,38.4,21.0,92,73,50,30.38,30.17,19,4,19,0.00
2013-11-24,39.2,31.0,24.4,22.4,16.1,11.0,69,55,32,30.56,30.38,12,2,21,0.00
2013-11-25,41.8,34.2,26.1,33.0,21.8,14.7,93,62,40,30.48,30.20,4,0,6,0.27
2013-11-26,43.9,37.9,33.3,42.5,36.1,31.5,95,93,86,30.20,29.74,11,1,13,1.99
2013-11-27,38.6,32.8,24.8,36.0,24.4,16.6,92,71,56,30.32,29.82,14,4,22,0.00
2013-11-28,44.9,30.3,18.1,27.8,21.5,15.5,90,71,47,30.49,30.32,5,1,8,0.00
2013-11-29,52.1,34.2,21.6,31.8,25.4,19.0,93,73,41,30.58,30.47,8,1,12,0.00
2013-11-30,55.4,36.8,23.9,35.6,28.1,21.9,95,74,39,30.54,30.30,9,0,10,0.01
2013-12-1,56.4,40.8,25.5,40.7,33.1,23.5,99,76,51,30.31,29.99,6,0,9,0.00
2013-12-2,48.3,46.7,44.9,48.2,44.8,40.0,100,93,79,29.99,29.79,2,0,3,0.11
2013-12-3,53.0,50.4,48.0,52.0,49.5,46.9,100,96,96,29.85,29.79,2,0,2,0.01
2013-12-4,71.5,59.1,52.3,64.0,56.5,51.5,98,91,71,29.93,29.82,10,1,13,0.01
2013-12-5,73.9,68.0,62.9,68.0,65.0,61.0,96,90,80,29.98,29.86,8,1,13,0.01
2013-12-6,67.9,51.3,39.9,66.1,49.5,38.0,96,93,87,30.17,29.82,6,1,11,1.36
2013-12-7,41.3,39.0,37.0,38.3,35.0,33.0,92,85,80,30.39,30.17,9,2,14,0.00
2013-12-8,47.4,41.5,36.4,46.3,40.1,34.0,100,95,88,30.32,30.08,4,0,8,0.97
2013-12-9,54.1,47.1,41.1,50.1,44.9,38.5,100,92,83,30.15,30.02,7,1,10,0.44
2013-12-10,42.3,36.7,26.1,40.2,32.1,24.0,95,84,60,30.37,29.97,12,2,22,0.42
2013-12-11,49.9,33.7,21.7,35.0,27.3,20.0,95,79,45,30.47,30.34,5,0,6,0.01
2013-12-12,44.4,32.7,24.7,27.8,22.5,17.9,87,68,35,30.55,30.41,7,1,11,0.00
2013-12-13,44.3,33.1,20.1,32.1,24.8,17.9,92,73,44,30.44,30.16,3,0,4,0.00
2013-12-14,47.9,41.6,37.0,46.6,39.2,31.6,96,91,79,30.18,29.80,6,0,11,0.82
2013-12-15,44.4,36.8,29.4,39.9,31.6,26.9,92,81,72,30.23,29.90,12,3,13,0.00
2013-12-16,54.5,36.9,26.3,37.9,31.3,24.8,95,82,52,30.27,30.12,11,1,16,0.00
2013-12-17,61.3,44.2,29.3,41.2,33.7,27.5,94,70,46,30.25,30.03,10,2,18,0.00
2013-12-18,50.3,36.8,25.3,29.6,26.4,22.6,91,68,39,30.36,30.24,6,1,12,0.00
2013-12-19,61.4,39.9,24.0,34.1,28.4,22.0,94,68,33,30.32,30.14,4,0,9,0.00
2013-12-20,63.4,50.4,34.4,53.2,41.7,31.0,89,73,51,30.17,30.04,8,1,12,0.00
2013-12-21,69.1,60.0,54.9,66.0,57.5,51.9,97,92,81,30.04,29.77,16,1,16,0.14
2013-12-22,70.1,59.5,55.6,67.0,57.1,53.9,96,92,79,30.03,29.74,11,2,24,1.63
2013-12-23,55.6,42.7,28.4,54.0,37.9,25.9,96,83,71,30.35,30.01,15,2,16,0.01
2013-12-24,38.2,30.6,23.8,27.0,21.9,16.5,92,71,45,30.50,30.35,10,1,13,0.00
2013-12-25,47.2,30.6,18.7,29.0,22.3,16.0,92,73,46,30.48,30.33,8,0,10,0.00
2013-12-26,50.4,34.1,22.9,33.4,27.5,20.9,93,79,51,30.41,30.30,7,0,9,0.00
2013-12-27,53.1,34.9,22.4,32.0,25.6,20.4,93,73,32,30.48,30.36,6,0,9,0.00
2013-12-28,41.4,33.8,25.8,37.7,29.8,-99.9,95,88,70,30.40,29.97,2,-4,6,0.88
2013-12-29,49.9,42.2,35.1,45.0,40.0,33.5,96,92,80,30.04,29.88,5,0,6,0.46
2013-12-30,41.3,38.8,37.1,40.1,34.6,31.0,96,85,71,30.24,30.04,5,1,9,0.00
2013-12-31,42.5,33.5,27.0,33.5,28.0,25.0,94,82,57,30.46,30.22,8,1,11,0.00
2014-1-1,51.0,34.0,23.6,34.6,28.5,21.6,93,82,52,30.36,30.10,7,0,8,0.01
2014-1-2,46.2,37.5,22.9,45.1,33.0,14.0,96,84,67,30.24,29.79,16,2,21,0.28